AirNav   Air Wisconsin Up To $57,000 Bonus
 
 874 users online  

4TN4 Cotton Field Airport
Eads, Tennessee, USA

GOING TO EADS?


FAA INFORMATION EFFECTIVE 12 SEPTEMBER 2019

Location

FAA Identifier: 4TN4
Lat/Long: 35-11-24.0000N 089-38-19.0000W
35-11.400000N 089-38.316667W
35.1900000,-89.6386111
(estimated)
Elevation: 345 ft. / 105 m (estimated)
Variation: 01E (1990)
From city: 1 mile SE of EADS, TN
Time zone: UTC -5 (UTC -6 during Standard Time)
Zip code: 38028

Airport Operations

Airport use: Private use. Permission required prior to landing
Activation date: 04/1993
Control tower: no
ARTCC: MEMPHIS CENTER
FSS: JACKSON FLIGHT SERVICE STATION
Attendance: UNATNDD
Segmented circle: no

Airport Communications

WX AWOS-3 at FYE (12 nm E): 119.875 (901-465-6367)
WX AWOS-3 at OLV (15 nm SW): 119.925 (662-893-5906)
WX AWOS-3 at NQA (15 nm NW): 118.925 (901-873-3630)
WX AWOS-A at 2M8 (15 nm W): 122.8 ((901) 873-0903)
WX ASOS at MEM (19 nm SW): 127.75 (901-332-3679)

Nearby radio navigation aids

VOR radial/distance  VOR name  Freq  Var
MEMr057/19.9MEMPHIS VORTAC117.5001E
HLIr341/26.1HOLLY SPRINGS VORTAC112.4003E

 
NDB name  Hdg/Dist  Freq  Var  ID
MERSY241/38.739401WMKL -- -.- .-..

Airport Services

Runway Information

Runway 13/31

Dimensions: 2600 x 100 ft. / 792 x 30 m
Surface: turf
RUNWAY 13  RUNWAY 31
Traffic pattern: leftleft
Obstructions: 50 ft. trees, 600 ft. from runwaynone

Airport Ownership and Management from official FAA records

Ownership: Privately-owned
Owner: BOBBIE MILLER
12630 COBURN RD
EADS, TN 38028
Phone 901-853-3963
Manager: BOBBIE MILLER
12630 COBURN RD
EADS, TN 38028
Phone 901-853-3963

Airport Operational Statistics

Aircraft based on the field: 5
Single engine airplanes: 5
    

Additional Remarks

FOR CD CTC MEMPHIS APCH AT 901-842-8457.

Instrument Procedures

There are no published instrument procedures at 4TN4.

Some nearby airports with instrument procedures:

KFYE - Fayette County Airport (12 nm E)
KOLV - Olive Branch Airport (15 nm SW)
KNQA - Millington-Memphis Airport (15 nm NW)
2M8 - Charles W Baker Airport (15 nm W)
KMEM - Memphis International Airport (19 nm SW)
 
Loc | Ops | Rwys | IFR | FBO | Links
Com | Nav | Svcs | Stats | Notes
Area around 4TN4 (Cotton Field Airport)
 
Road maps at: MapQuest Bing Google
 
Aerial photo
No photo
 
Sectional chart

 
Airport distance calculator
Flying to Cotton Field Airport? Find the distance to fly.

From to 4TN4

Sunrise and sunset
Times for 16-Sep-2019
 Local
(UTC-5)
 Zulu
(UTC)
Morning civil twilight06:1811:18
Sunrise06:4311:43
Sunset19:0400:04
Evening civil twilight19:2900:29

Current date and time
Zulu (UTC)  17-Sep-2019 01:45:28
Local (UTC-5)  16-Sep-2019 20:45:28
 
METAR
KFYE 
12nm E 
170135Z AUTO 00000KT 10SM CLR 26/21 A3001 RMK A01
KOLV 
14nm SW 
170050Z 00000KT 10SM FEW055 30/19 A3000
KNQA 
15nm NW 
170050Z 04004KT 10SM CLR 29/19 A3000
KMEM 
18nm SW 
170054Z 00000KT 10SM FEW050 FEW250 31/19 A3001 RMK AO2 SLP156 T03110194
KM04 
24nm N 
162000Z AUTO 06004KT 10SM CLR 34/18 A3003 RMK A01
TAF
KMEM 
18nm SW 
162058Z 1621/1724 06005KT P6SM FEW070 FM170000 VRB03KT P6SM SKC FM171700 32004KT P6SM FEW060
NOTAMs
Click for the latest NOTAMs
NOTAMs are issued by the DoD/FAA and will open in a separate window not controlled by AirNav.

 

 
 

Would you like to see your business listed on this page?

 If your business provides an interesting product or service to pilots, flight crews, aircraft, or users of the Cotton Field Airport, you should consider listing it here.  To start the listing process, click on the button below
 
Add a business
 

Other Pages about Cotton Field Airport

Update a link
 
Copyright © AirNav, LLC. All rights reserved. Privacy Policy  Contact